sensor_id;sensor_type;location;lat;lon;timestamp;pressure;altitude;pressure_sealevel;temperature;humidity
71768;BME280;59604;52.138;5.446;2022-07-23T00:00:09;102118.97;;;15.80;76.02
71768;BME280;59604;52.138;5.446;2022-07-23T00:02:36;102115.09;;;15.82;75.83
71768;BME280;59604;52.138;5.446;2022-07-23T00:05:03;102106.44;;;15.74;76.21
71768;BME280;59604;52.138;5.446;2022-07-23T00:07:30;102103.72;;;15.67;76.46
71768;BME280;59604;52.138;5.446;2022-07-23T00:09:57;102105.19;;;15.69;76.52
71768;BME280;59604;52.138;5.446;2022-07-23T00:12:23;102105.19;;;15.69;76.58
71768;BME280;59604;52.138;5.446;2022-07-23T00:14:50;102098.84;;;15.70;76.88
71768;BME280;59604;52.138;5.446;2022-07-23T00:17:17;102108.22;;;15.66;76.92
71768;BME280;59604;52.138;5.446;2022-07-23T00:19:44;102108.31;;;15.58;77.23
71768;BME280;59604;52.138;5.446;2022-07-23T00:22:10;102112.34;;;15.54;77.20
71768;BME280;59604;52.138;5.446;2022-07-23T00:24:37;102104.94;;;15.50;77.39
71768;BME280;59604;52.138;5.446;2022-07-23T00:27:04;102100.03;;;15.46;77.32
71768;BME280;59604;52.138;5.446;2022-07-23T00:29:30;102099.59;;;15.43;77.22
71768;BME280;59604;52.138;5.446;2022-07-23T00:31:57;102098.72;;;15.42;77.16
71768;BME280;59604;52.138;5.446;2022-07-23T00:34:23;102097.09;;;15.41;77.15
71768;BME280;59604;52.138;5.446;2022-07-23T00:36:50;102094.19;;;15.36;77.43
71768;BME280;59604;52.138;5.446;2022-07-23T00:39:17;102088.25;;;15.34;77.58
71768;BME280;59604;52.138;5.446;2022-07-23T00:41:43;102088.25;;;15.34;77.17
71768;BME280;59604;52.138;5.446;2022-07-23T00:44:18;102090.28;;;15.32;77.39
71768;BME280;59604;52.138;5.446;2022-07-23T00:46:51;102087.41;;;15.34;77.38
71768;BME280;59604;52.138;5.446;2022-07-23T00:49:23;102085.78;;;15.33;77.37
71768;BME280;59604;52.138;5.446;2022-07-23T00:51:50;102081.50;;;15.32;77.24
71768;BME280;59604;52.138;5.446;2022-07-23T00:54:18;102082.84;;;15.28;77.56
71768;BME280;59604;52.138;5.446;2022-07-23T00:56:46;102076.66;;;15.20;78.00
71768;BME280;59604;52.138;5.446;2022-07-23T00:59:13;102079.44;;;15.12;78.34
71768;BME280;59604;52.138;5.446;2022-07-23T01:01:40;102069.00;;;15.11;78.30
71768;BME280;59604;52.138;5.446;2022-07-23T01:04:07;102074.13;;;15.12;78.05
71768;BME280;59604;52.138;5.446;2022-07-23T01:06:36;102076.78;;;15.12;78.03
71768;BME280;59604;52.138;5.446;2022-07-23T01:09:04;102070.56;;;15.05;78.63
71768;BME280;59604;52.138;5.446;2022-07-23T01:11:36;102068.69;;;14.99;78.24
71768;BME280;59604;52.138;5.446;2022-07-23T01:14:15;102063.38;;;14.99;78.04
71768;BME280;59604;52.138;5.446;2022-07-23T01:16:43;102065.22;;;14.98;78.30
71768;BME280;59604;52.138;5.446;2022-07-23T01:19:11;102068.22;;;14.95;78.32
71768;BME280;59604;52.138;5.446;2022-07-23T01:21:40;102070.25;;;14.93;78.18
71768;BME280;59604;52.138;5.446;2022-07-23T01:24:08;102071.06;;;14.94;77.87
71768;BME280;59604;52.138;5.446;2022-07-23T01:26:35;102064.69;;;14.88;78.42
71768;BME280;59604;52.138;5.446;2022-07-23T01:29:02;102067.81;;;14.77;79.06
71768;BME280;59604;52.138;5.446;2022-07-23T01:31:30;102065.22;;;14.69;79.06
71768;BME280;59604;52.138;5.446;2022-07-23T01:33:57;102059.47;;;14.65;79.41
71768;BME280;59604;52.138;5.446;2022-07-23T01:36:26;102052.19;;;14.53;80.25
71768;BME280;59604;52.138;5.446;2022-07-23T01:38:52;102059.00;;;14.47;80.35
71768;BME280;59604;52.138;5.446;2022-07-23T01:41:19;102060.66;;;14.48;80.56
71768;BME280;59604;52.138;5.446;2022-07-23T01:43:46;102053.28;;;14.43;80.67
71768;BME280;59604;52.138;5.446;2022-07-23T01:46:13;102053.06;;;14.45;80.86
71768;BME280;59604;52.138;5.446;2022-07-23T01:48:40;102053.91;;;14.45;80.71
71768;BME280;59604;52.138;5.446;2022-07-23T01:51:07;102056.34;;;14.47;80.50
71768;BME280;59604;52.138;5.446;2022-07-23T01:53:34;102055.19;;;14.49;80.49
71768;BME280;59604;52.138;5.446;2022-07-23T01:56:01;102055.84;;;14.52;80.03
71768;BME280;59604;52.138;5.446;2022-07-23T01:58:28;102054.34;;;14.49;79.95
71768;BME280;59604;52.138;5.446;2022-07-23T02:00:55;102055.38;;;14.48;79.83
71768;BME280;59604;52.138;5.446;2022-07-23T02:03:22;102055.53;;;14.46;79.87
71768;BME280;59604;52.138;5.446;2022-07-23T02:05:49;102056.53;;;14.45;79.77
71768;BME280;59604;52.138;5.446;2022-07-23T02:08:15;102052.88;;;14.46;79.75
71768;BME280;59604;52.138;5.446;2022-07-23T02:10:42;102057.38;;;14.46;79.65
71768;BME280;59604;52.138;5.446;2022-07-23T02:13:09;102055.72;;;14.45;79.34
71768;BME280;59604;52.138;5.446;2022-07-23T02:15:44;102053.44;;;14.42;79.62
71768;BME280;59604;52.138;5.446;2022-07-23T02:18:11;102047.69;;;14.38;79.48
71768;BME280;59604;52.138;5.446;2022-07-23T02:20:37;102052.34;;;14.36;79.45
71768;BME280;59604;52.138;5.446;2022-07-23T02:23:05;102056.81;;;14.36;79.67
71768;BME280;59604;52.138;5.446;2022-07-23T02:25:33;102055.00;;;14.36;79.58
71768;BME280;59604;52.138;5.446;2022-07-23T02:28:00;102052.72;;;14.33;79.71
71768;BME280;59604;52.138;5.446;2022-07-23T02:30:26;102049.78;;;14.28;79.77
71768;BME280;59604;52.138;5.446;2022-07-23T02:32:53;102049.50;;;14.23;80.10
71768;BME280;59604;52.138;5.446;2022-07-23T02:35:20;102055.34;;;14.18;80.10
71768;BME280;59604;52.138;5.446;2022-07-23T02:37:47;102058.19;;;14.17;80.11
71768;BME280;59604;52.138;5.446;2022-07-23T02:40:14;102061.00;;;14.15;80.17
71768;BME280;59604;52.138;5.446;2022-07-23T02:42:41;102053.44;;;14.12;80.24
71768;BME280;59604;52.138;5.446;2022-07-23T02:45:08;102056.28;;;14.11;80.42
71768;BME280;59604;52.138;5.446;2022-07-23T02:47:34;102051.69;;;14.05;80.63
71768;BME280;59604;52.138;5.446;2022-07-23T02:50:01;102057.06;;;13.96;80.94
71768;BME280;59604;52.138;5.446;2022-07-23T02:52:27;102061.72;;;13.94;81.04
71768;BME280;59604;52.138;5.446;2022-07-23T02:54:54;102060.53;;;13.97;80.90
71768;BME280;59604;52.138;5.446;2022-07-23T02:57:21;102071.13;;;13.97;81.07
71768;BME280;59604;52.138;5.446;2022-07-23T02:59:47;102063.00;;;13.98;80.60
71768;BME280;59604;52.138;5.446;2022-07-23T03:02:14;102061.81;;;14.01;80.59
71768;BME280;59604;52.138;5.446;2022-07-23T03:04:40;102069.75;;;14.01;80.59
71768;BME280;59604;52.138;5.446;2022-07-23T03:07:08;102062.00;;;13.99;80.04
71768;BME280;59604;52.138;5.446;2022-07-23T03:09:35;102070.59;;;14.01;80.26
71768;BME280;59604;52.138;5.446;2022-07-23T03:12:02;102073.44;;;14.00;80.17
71768;BME280;59604;52.138;5.446;2022-07-23T03:14:28;102083.56;;;13.96;80.28
71768;BME280;59604;52.138;5.446;2022-07-23T03:16:55;102080.44;;;13.93;80.60
71768;BME280;59604;52.138;5.446;2022-07-23T03:19:21;102089.41;;;13.92;80.51
71768;BME280;59604;52.138;5.446;2022-07-23T03:21:49;102086.09;;;13.90;80.59
71768;BME280;59604;52.138;5.446;2022-07-23T03:24:16;102085.28;;;13.89;80.42
71768;BME280;59604;52.138;5.446;2022-07-23T03:26:44;102085.28;;;13.89;80.46
71768;BME280;59604;52.138;5.446;2022-07-23T03:29:11;102079.31;;;13.87;80.51
71768;BME280;59604;52.138;5.446;2022-07-23T03:31:38;102088.28;;;13.86;80.43
71768;BME280;59604;52.138;5.446;2022-07-23T03:34:04;102088.63;;;13.83;80.12
71768;BME280;59604;52.138;5.446;2022-07-23T03:36:31;102093.28;;;13.81;80.36
71768;BME280;59604;52.138;5.446;2022-07-23T03:38:58;102090.00;;;13.79;80.50
71768;BME280;59604;52.138;5.446;2022-07-23T03:41:27;102089.88;;;13.72;80.81
71768;BME280;59604;52.138;5.446;2022-07-23T03:43:54;102087.75;;;13.68;81.02
71768;BME280;59604;52.138;5.446;2022-07-23T03:46:20;102091.06;;;13.70;81.05
71768;BME280;59604;52.138;5.446;2022-07-23T03:48:47;102089.03;;;13.72;81.14
71768;BME280;59604;52.138;5.446;2022-07-23T03:51:13;102083.94;;;13.70;81.05
71768;BME280;59604;52.138;5.446;2022-07-23T03:53:40;102087.56;;;13.69;81.40
71768;BME280;59604;52.138;5.446;2022-07-23T03:56:06;102084.41;;;13.74;81.32
71768;BME280;59604;52.138;5.446;2022-07-23T03:58:33;102080.09;;;13.73;81.31
71768;BME280;59604;52.138;5.446;2022-07-23T04:00:59;102074.31;;;13.69;81.35
71768;BME280;59604;52.138;5.446;2022-07-23T04:03:26;102070.88;;;13.69;81.21
71768;BME280;59604;52.138;5.446;2022-07-23T04:05:52;102070.69;;;13.70;81.56
71768;BME280;59604;52.138;5.446;2022-07-23T04:08:19;102075.81;;;13.72;81.34
71768;BME280;59604;52.138;5.446;2022-07-23T04:10:45;102075.00;;;13.71;81.74
71768;BME280;59604;52.138;5.446;2022-07-23T04:13:12;102075.69;;;13.65;81.92
71768;BME280;59604;52.138;5.446;2022-07-23T04:15:39;102079.56;;;13.54;82.24
71768;BME280;59604;52.138;5.446;2022-07-23T04:18:05;102072.84;;;13.52;82.42
71768;BME280;59604;52.138;5.446;2022-07-23T04:20:32;102076.94;;;13.54;82.53
71768;BME280;59604;52.138;5.446;2022-07-23T04:23:05;102081.59;;;13.52;82.67
71768;BME280;59604;52.138;5.446;2022-07-23T04:25:32;102071.34;;;13.49;82.70
71768;BME280;59604;52.138;5.446;2022-07-23T04:27:58;102077.19;;;13.45;82.88
71768;BME280;59604;52.138;5.446;2022-07-23T04:30:25;102080.53;;;13.39;83.22
71768;BME280;59604;52.138;5.446;2022-07-23T04:32:51;102081.53;;;13.38;83.57
71768;BME280;59604;52.138;5.446;2022-07-23T04:35:18;102072.41;;;13.40;83.63
71768;BME280;59604;52.138;5.446;2022-07-23T04:37:45;102071.88;;;13.45;83.20
71768;BME280;59604;52.138;5.446;2022-07-23T04:40:12;102076.84;;;13.48;82.82
71768;BME280;59604;52.138;5.446;2022-07-23T04:42:39;102080.59;;;13.53;82.74
71768;BME280;59604;52.138;5.446;2022-07-23T04:45:06;102081.41;;;13.54;82.44
71768;BME280;59604;52.138;5.446;2022-07-23T04:47:38;102077.94;;;13.53;82.53
71768;BME280;59604;52.138;5.446;2022-07-23T04:50:05;102086.34;;;13.57;82.63
71768;BME280;59604;52.138;5.446;2022-07-23T04:52:32;102082.00;;;13.64;82.58
71768;BME280;59604;52.138;5.446;2022-07-23T04:54:58;102081.28;;;13.70;82.43
71768;BME280;59604;52.138;5.446;2022-07-23T04:57:25;102088.88;;;13.73;82.68
71768;BME280;59604;52.138;5.446;2022-07-23T04:59:52;102100.56;;;13.79;82.51
71768;BME280;59604;52.138;5.446;2022-07-23T05:02:18;102096.41;;;13.85;82.42
71768;BME280;59604;52.138;5.446;2022-07-23T05:04:45;102096.50;;;13.91;82.33
71768;BME280;59604;52.138;5.446;2022-07-23T05:07:11;102095.31;;;13.94;82.30
71768;BME280;59604;52.138;5.446;2022-07-23T05:09:38;102092.13;;;13.98;82.08
71768;BME280;59604;52.138;5.446;2022-07-23T05:12:05;102088.59;;;14.06;82.01
71768;BME280;59604;52.138;5.446;2022-07-23T05:14:31;102089.50;;;14.13;82.52
71768;BME280;59604;52.138;5.446;2022-07-23T05:16:58;102095.09;;;14.18;82.02
71768;BME280;59604;52.138;5.446;2022-07-23T05:19:24;102100.31;;;14.26;82.35
71768;BME280;59604;52.138;5.446;2022-07-23T05:21:51;102103.91;;;14.34;81.88
71768;BME280;59604;52.138;5.446;2022-07-23T05:24:18;102106.28;;;14.43;82.01
71768;BME280;59604;52.138;5.446;2022-07-23T05:26:44;102107.38;;;14.49;82.02
71768;BME280;59604;52.138;5.446;2022-07-23T05:29:11;102109.97;;;14.57;82.08
71768;BME280;59604;52.138;5.446;2022-07-23T05:31:37;102102.81;;;14.58;82.75
71768;BME280;59604;52.138;5.446;2022-07-23T05:34:04;102112.72;;;14.64;82.80
71768;BME280;59604;52.138;5.446;2022-07-23T05:36:31;102110.78;;;14.72;82.20
71768;BME280;59604;52.138;5.446;2022-07-23T05:38:58;102111.69;;;14.80;82.13
71768;BME280;59604;52.138;5.446;2022-07-23T05:41:25;102113.41;;;14.87;82.37
71768;BME280;59604;52.138;5.446;2022-07-23T05:43:52;102117.63;;;14.96;81.87
71768;BME280;59604;52.138;5.446;2022-07-23T05:46:19;102115.50;;;15.07;81.28
71768;BME280;59604;52.138;5.446;2022-07-23T05:48:46;102118.25;;;15.13;81.17
71768;BME280;59604;52.138;5.446;2022-07-23T05:51:25;102117.13;;;15.22;81.15
71768;BME280;59604;52.138;5.446;2022-07-23T05:53:51;102118.47;;;15.33;81.22
71768;BME280;59604;52.138;5.446;2022-07-23T05:56:18;102134.72;;;15.45;81.06
71768;BME280;59604;52.138;5.446;2022-07-23T05:58:45;102131.75;;;15.55;80.77
71768;BME280;59604;52.138;5.446;2022-07-23T06:01:12;102129.09;;;15.69;80.19
71768;BME280;59604;52.138;5.446;2022-07-23T06:03:38;102128.00;;;15.85;79.40
71768;BME280;59604;52.138;5.446;2022-07-23T06:06:05;102132.03;;;16.03;78.82
71768;BME280;59604;52.138;5.446;2022-07-23T06:08:32;102129.88;;;16.13;77.96
71768;BME280;59604;52.138;5.446;2022-07-23T06:10:59;102126.03;;;16.22;77.98
71768;BME280;59604;52.138;5.446;2022-07-23T06:13:25;102128.81;;;16.35;76.82
71768;BME280;59604;52.138;5.446;2022-07-23T06:15:52;102134.13;;;16.42;76.55
71768;BME280;59604;52.138;5.446;2022-07-23T06:18:19;102130.91;;;16.47;75.78
71768;BME280;59604;52.138;5.446;2022-07-23T06:20:45;102131.81;;;16.60;75.75
71768;BME280;59604;52.138;5.446;2022-07-23T06:23:16;102129.38;;;16.65;75.42
71768;BME280;59604;52.138;5.446;2022-07-23T06:25:43;102127.41;;;16.74;74.31
71768;BME280;59604;52.138;5.446;2022-07-23T06:28:10;102126.00;;;16.78;73.66
71768;BME280;59604;52.138;5.446;2022-07-23T06:30:39;102124.59;;;16.82;73.86
71768;BME280;59604;52.138;5.446;2022-07-23T06:33:07;102130.34;;;16.86;73.85
71768;BME280;59604;52.138;5.446;2022-07-23T06:35:34;102129.34;;;16.94;74.01
71768;BME280;59604;52.138;5.446;2022-07-23T06:38:01;102130.19;;;17.01;73.40
71768;BME280;59604;52.138;5.446;2022-07-23T06:40:28;102140.69;;;17.09;74.12
71768;BME280;59604;52.138;5.446;2022-07-23T06:42:55;102136.00;;;17.18;73.84
71768;BME280;59604;52.138;5.446;2022-07-23T06:45:22;102132.34;;;17.25;73.52
71768;BME280;59604;52.138;5.446;2022-07-23T06:47:50;102132.16;;;17.33;72.38
71768;BME280;59604;52.138;5.446;2022-07-23T06:50:16;102133.00;;;17.41;72.06
71768;BME280;59604;52.138;5.446;2022-07-23T06:52:43;102139.56;;;17.51;72.02
71768;BME280;59604;52.138;5.446;2022-07-23T06:55:10;102139.16;;;17.48;71.91
71768;BME280;59604;52.138;5.446;2022-07-23T06:57:37;102147.16;;;17.54;70.89
71768;BME280;59604;52.138;5.446;2022-07-23T07:00:05;102153.34;;;17.61;70.39
71768;BME280;59604;52.138;5.446;2022-07-23T07:02:32;102140.63;;;17.70;69.21
71768;BME280;59604;52.138;5.446;2022-07-23T07:04:59;102143.09;;;17.72;69.35
71768;BME280;59604;52.138;5.446;2022-07-23T07:07:31;102138.00;;;17.83;69.16
71768;BME280;59604;52.138;5.446;2022-07-23T07:09:58;102144.59;;;17.94;69.25
71768;BME280;59604;52.138;5.446;2022-07-23T07:12:24;102146.41;;;18.00;69.05
71768;BME280;59604;52.138;5.446;2022-07-23T07:14:51;102152.38;;;18.09;68.03
71768;BME280;59604;52.138;5.446;2022-07-23T07:17:20;102145.59;;;18.26;69.33
71768;BME280;59604;52.138;5.446;2022-07-23T07:19:46;102155.25;;;18.27;69.15
71768;BME280;59604;52.138;5.446;2022-07-23T07:22:13;102153.41;;;18.34;67.99
71768;BME280;59604;52.138;5.446;2022-07-23T07:24:41;102149.88;;;18.41;66.35
71768;BME280;59604;52.138;5.446;2022-07-23T07:27:08;102150.91;;;18.40;66.30
71768;BME280;59604;52.138;5.446;2022-07-23T07:29:35;102155.03;;;18.42;67.54
71768;BME280;59604;52.138;5.446;2022-07-23T07:32:01;102160.13;;;18.44;66.45
71768;BME280;59604;52.138;5.446;2022-07-23T07:34:28;102160.13;;;18.57;65.11
71768;BME280;59604;52.138;5.446;2022-07-23T07:36:55;102165.06;;;18.60;65.61
71768;BME280;59604;52.138;5.446;2022-07-23T07:39:22;102172.22;;;18.73;65.19
71768;BME280;59604;52.138;5.446;2022-07-23T07:41:49;102167.72;;;18.60;64.07
71768;BME280;59604;52.138;5.446;2022-07-23T07:44:15;102169.56;;;18.59;63.31
71768;BME280;59604;52.138;5.446;2022-07-23T07:46:42;102165.47;;;18.64;63.30
71768;BME280;59604;52.138;5.446;2022-07-23T07:49:09;102163.59;;;18.64;63.76
71768;BME280;59604;52.138;5.446;2022-07-23T07:51:41;102172.84;;;18.68;63.95
71768;BME280;59604;52.138;5.446;2022-07-23T07:54:14;102171.38;;;18.66;62.93
71768;BME280;59604;52.138;5.446;2022-07-23T07:56:41;102170.75;;;18.70;63.42
71768;BME280;59604;52.138;5.446;2022-07-23T07:59:08;102177.38;;;18.74;62.00
71768;BME280;59604;52.138;5.446;2022-07-23T08:01:36;102178.97;;;18.69;62.59
71768;BME280;59604;52.138;5.446;2022-07-23T08:04:03;102177.38;;;18.74;64.56
71768;BME280;59604;52.138;5.446;2022-07-23T08:06:30;102187.41;;;18.79;63.69
71768;BME280;59604;52.138;5.446;2022-07-23T08:08:57;102180.84;;;18.81;63.69
71768;BME280;59604;52.138;5.446;2022-07-23T08:11:23;102176.28;;;18.89;62.95
71768;BME280;59604;52.138;5.446;2022-07-23T08:13:50;102186.34;;;18.93;63.07
71768;BME280;59604;52.138;5.446;2022-07-23T08:16:16;102184.69;;;18.92;62.49
71768;BME280;59604;52.138;5.446;2022-07-23T08:18:43;102187.56;;;19.04;61.83
71768;BME280;59604;52.138;5.446;2022-07-23T08:21:10;102183.84;;;19.05;61.32
71768;BME280;59604;52.138;5.446;2022-07-23T08:23:37;102192.22;;;19.15;61.88
71768;BME280;59604;52.138;5.446;2022-07-23T08:26:04;102180.69;;;19.21;61.92
71768;BME280;59604;52.138;5.446;2022-07-23T08:28:30;102176.78;;;19.24;62.02
71768;BME280;59604;52.138;5.446;2022-07-23T08:31:00;102191.75;;;19.31;61.82
71768;BME280;59604;52.138;5.446;2022-07-23T08:33:27;102183.69;;;19.38;61.79
71768;BME280;59604;52.138;5.446;2022-07-23T08:36:03;102189.84;;;19.45;61.86
71768;BME280;59604;52.138;5.446;2022-07-23T08:38:31;102185.84;;;19.54;60.87
71768;BME280;59604;52.138;5.446;2022-07-23T08:40:58;102181.94;;;19.57;60.63
71768;BME280;59604;52.138;5.446;2022-07-23T08:43:27;102186.66;;;19.55;60.43
71768;BME280;59604;52.138;5.446;2022-07-23T08:45:56;102182.19;;;19.49;61.21
71768;BME280;59604;52.138;5.446;2022-07-23T08:48:28;102184.25;;;19.47;60.51
71768;BME280;59604;52.138;5.446;2022-07-23T08:50:58;102182.78;;;19.51;61.24
71768;BME280;59604;52.138;5.446;2022-07-23T08:53:27;102185.84;;;19.54;60.96
71768;BME280;59604;52.138;5.446;2022-07-23T08:55:56;102181.78;;;19.52;60.24
71768;BME280;59604;52.138;5.446;2022-07-23T08:58:23;102181.28;;;19.62;60.25
71768;BME280;59604;52.138;5.446;2022-07-23T09:00:54;102177.00;;;19.61;59.61
71768;BME280;59604;52.138;5.446;2022-07-23T09:03:26;102195.69;;;19.67;59.41
71768;BME280;59604;52.138;5.446;2022-07-23T09:05:54;102187.03;;;19.72;59.54
71768;BME280;59604;52.138;5.446;2022-07-23T09:08:25;102187.81;;;19.79;59.63
71768;BME280;59604;52.138;5.446;2022-07-23T09:10:59;102190.09;;;19.75;59.62
71768;BME280;59604;52.138;5.446;2022-07-23T09:13:34;102187.38;;;19.82;59.54
71768;BME280;59604;52.138;5.446;2022-07-23T09:16:08;102195.75;;;19.92;59.87
71768;BME280;59604;52.138;5.446;2022-07-23T09:18:39;102194.28;;;19.96;58.59
71768;BME280;59604;52.138;5.446;2022-07-23T09:21:10;102193.47;;;19.96;58.55
71768;BME280;59604;52.138;5.446;2022-07-23T09:23:45;102194.09;;;19.91;58.44
71768;BME280;59604;52.138;5.446;2022-07-23T09:26:27;102198.03;;;19.89;58.91
71768;BME280;59604;52.138;5.446;2022-07-23T09:29:12;102194.22;;;20.03;58.41
71768;BME280;59604;52.138;5.446;2022-07-23T09:34:12;102184.44;;;20.40;58.91
71768;BME280;59604;52.138;5.446;2022-07-23T09:36:39;102198.78;;;20.46;58.30
71768;BME280;59604;52.138;5.446;2022-07-23T09:39:06;102194.47;;;20.45;58.31
71768;BME280;59604;52.138;5.446;2022-07-23T09:41:35;102204.81;;;20.66;56.79
71768;BME280;59604;52.138;5.446;2022-07-23T09:44:10;102201.97;;;20.61;56.05
71768;BME280;59604;52.138;5.446;2022-07-23T09:46:37;102199.44;;;20.66;56.94
71768;BME280;59604;52.138;5.446;2022-07-23T09:49:14;102208.81;;;20.75;54.99
71768;BME280;59604;52.138;5.446;2022-07-23T09:54:24;102198.78;;;20.89;56.14
71768;BME280;59604;52.138;5.446;2022-07-23T09:56:53;102200.28;;;21.04;57.72
71768;BME280;59604;52.138;5.446;2022-07-23T09:59:31;102192.75;;;20.94;56.31
71768;BME280;59604;52.138;5.446;2022-07-23T10:02:00;102190.81;;;21.01;55.50
71768;BME280;59604;52.138;5.446;2022-07-23T10:04:28;102199.91;;;21.18;57.14
71768;BME280;59604;52.138;5.446;2022-07-23T10:07:00;102187.22;;;21.44;55.27
71768;BME280;59604;52.138;5.446;2022-07-23T10:09:29;102188.75;;;21.52;53.46
71768;BME280;59604;52.138;5.446;2022-07-23T10:11:58;102192.50;;;21.51;53.86
71768;BME280;59604;52.138;5.446;2022-07-23T10:14:49;102197.66;;;21.64;53.81
71768;BME280;59604;52.138;5.446;2022-07-23T10:17:17;102192.28;;;21.64;52.42
71768;BME280;59604;52.138;5.446;2022-07-23T10:19:45;102195.66;;;21.59;53.51
71768;BME280;59604;52.138;5.446;2022-07-23T10:25:04;102189.34;;;21.95;52.69
71768;BME280;59604;52.138;5.446;2022-07-23T10:28:12;102185.84;;;21.95;51.54
71768;BME280;59604;52.138;5.446;2022-07-23T10:36:35;102190.91;;;22.27;50.41
71768;BME280;59604;52.138;5.446;2022-07-23T10:39:13;102189.19;;;22.44;50.19
71768;BME280;59604;52.138;5.446;2022-07-23T10:41:41;102187.53;;;22.55;50.42
71768;BME280;59604;52.138;5.446;2022-07-23T10:46:59;102185.84;;;22.89;50.03
71768;BME280;59604;52.138;5.446;2022-07-23T10:49:31;102181.31;;;22.78;49.06
71768;BME280;59604;52.138;5.446;2022-07-23T10:57:12;102182.13;;;23.30;49.43
71768;BME280;59604;52.138;5.446;2022-07-23T11:02:41;102179.41;;;23.59;45.91
71768;BME280;59604;52.138;5.446;2022-07-23T11:05:09;102176.44;;;23.44;45.29
71768;BME280;59604;52.138;5.446;2022-07-23T11:08:10;102188.09;;;23.32;45.12
71768;BME280;59604;52.138;5.446;2022-07-23T11:10:37;102180.69;;;23.39;45.63
71768;BME280;59604;52.138;5.446;2022-07-23T11:24:12;102175.66;;;24.05;45.69
71768;BME280;59604;52.138;5.446;2022-07-23T11:31:55;102170.44;;;24.16;44.53
71768;BME280;59604;52.138;5.446;2022-07-23T11:34:29;102184.44;;;24.34;43.67
71768;BME280;59604;52.138;5.446;2022-07-23T11:36:58;102187.38;;;24.33;44.29
71768;BME280;59604;52.138;5.446;2022-07-23T11:39:26;102177.72;;;24.37;44.80
71768;BME280;59604;52.138;5.446;2022-07-23T11:41:54;102179.66;;;24.20;42.08
71768;BME280;59604;52.138;5.446;2022-07-23T11:44:28;102178.91;;;24.24;43.29
71768;BME280;59604;52.138;5.446;2022-07-23T11:49:22;102182.47;;;24.30;43.16
71768;BME280;59604;52.138;5.446;2022-07-23T11:54:35;102178.25;;;24.73;42.12
71768;BME280;59604;52.138;5.446;2022-07-23T11:57:06;102182.13;;;24.60;42.26
71768;BME280;59604;52.138;5.446;2022-07-23T11:59:33;102189.47;;;24.65;43.32
71768;BME280;59604;52.138;5.446;2022-07-23T12:02:03;102178.31;;;24.56;43.22
71768;BME280;59604;52.138;5.446;2022-07-23T12:07:31;102177.94;;;25.13;43.10
71768;BME280;59604;52.138;5.446;2022-07-23T12:10:20;102174.81;;;25.48;41.02
71768;BME280;59604;52.138;5.446;2022-07-23T12:12:57;102171.72;;;25.35;42.12
71768;BME280;59604;52.138;5.446;2022-07-23T12:15:30;102178.28;;;25.00;42.41
71768;BME280;59604;52.138;5.446;2022-07-23T12:18:00;102173.03;;;24.88;42.55
71768;BME280;59604;52.138;5.446;2022-07-23T12:20:39;102169.34;;;24.94;43.44
71768;BME280;59604;52.138;5.446;2022-07-23T12:23:07;102157.13;;;25.09;42.92
71768;BME280;59604;52.138;5.446;2022-07-23T12:25:37;102167.69;;;25.37;42.24
71768;BME280;59604;52.138;5.446;2022-07-23T12:28:12;102163.72;;;25.45;40.47
71768;BME280;59604;52.138;5.446;2022-07-23T12:30:49;102165.84;;;25.43;42.77
71768;BME280;59604;52.138;5.446;2022-07-23T12:35:54;102153.94;;;25.39;41.73
71768;BME280;59604;52.138;5.446;2022-07-23T12:38:23;102154.72;;;25.66;41.93
71768;BME280;59604;52.138;5.446;2022-07-23T12:43:27;102158.72;;;25.86;40.51
71768;BME280;59604;52.138;5.446;2022-07-23T12:48:35;102141.03;;;26.10;40.34
71768;BME280;59604;52.138;5.446;2022-07-23T12:53:43;102148.41;;;26.25;41.38
71768;BME280;59604;52.138;5.446;2022-07-23T12:56:18;102146.00;;;26.29;40.99
71768;BME280;59604;52.138;5.446;2022-07-23T12:59:08;102148.25;;;26.42;39.81
71768;BME280;59604;52.138;5.446;2022-07-23T13:01:44;102148.69;;;26.18;40.86
71768;BME280;59604;52.138;5.446;2022-07-23T13:04:22;102148.09;;;26.11;42.47
71768;BME280;59604;52.138;5.446;2022-07-23T13:06:54;102144.75;;;25.99;39.97
71768;BME280;59604;52.138;5.446;2022-07-23T13:09:27;102135.63;;;25.73;43.68
71768;BME280;59604;52.138;5.446;2022-07-23T13:11:59;102142.59;;;25.69;42.43
71768;BME280;59604;52.138;5.446;2022-07-23T13:14:26;102140.28;;;25.50;44.10
71768;BME280;59604;52.138;5.446;2022-07-23T13:16:54;102150.91;;;25.30;42.37
71768;BME280;59604;52.138;5.446;2022-07-23T13:19:23;102141.69;;;25.04;42.78
71768;BME280;59604;52.138;5.446;2022-07-23T13:21:52;102147.13;;;25.31;42.29
71768;BME280;59604;52.138;5.446;2022-07-23T13:24:20;102144.00;;;25.76;41.34
71768;BME280;59604;52.138;5.446;2022-07-23T13:26:47;102143.75;;;26.10;41.59
71768;BME280;59604;52.138;5.446;2022-07-23T13:29:16;102135.25;;;26.39;42.46
71768;BME280;59604;52.138;5.446;2022-07-23T13:31:46;102140.72;;;26.44;39.96
71768;BME280;59604;52.138;5.446;2022-07-23T13:34:14;102134.03;;;26.57;40.00
71768;BME280;59604;52.138;5.446;2022-07-23T13:36:41;102128.91;;;26.65;41.44
71768;BME280;59604;52.138;5.446;2022-07-23T13:39:10;102131.38;;;26.72;39.29
71768;BME280;59604;52.138;5.446;2022-07-23T13:41:38;102137.03;;;26.65;40.96
71768;BME280;59604;52.138;5.446;2022-07-23T13:44:05;102123.63;;;26.96;42.11
71768;BME280;59604;52.138;5.446;2022-07-23T13:46:33;102133.38;;;26.97;39.28
71768;BME280;59604;52.138;5.446;2022-07-23T13:49:00;102127.44;;;27.05;42.35
71768;BME280;59604;52.138;5.446;2022-07-23T13:51:28;102126.63;;;27.05;40.27
71768;BME280;59604;52.138;5.446;2022-07-23T13:53:54;102125.06;;;26.46;41.52
71768;BME280;59604;52.138;5.446;2022-07-23T13:56:21;102129.41;;;26.05;41.42